Airfield :
LOGIN :

Register | Disclaimer

   EN    FR    IT 

 










Legend :    VFR   Marginal VFR   IFR   Intensive IFR   Very Intensive IFR
Visi :
Ceiling :
>= 8 km
>= 3000ft
5 to 8 km
1000 to 3000 ft
1500m to 5 km
500 to 1000 ft
800 to 1500m
200 to 500 ft
< 800m
< 200 ft
Symbols :   Thunderstorms  Fog  Heavy snow  Heavy precipitations  Wind > 20 kt
SIGMETs :     Misc.  Thunderstorms  Icing  Turbulence  Mountain Waves  Volcanic Ashes






- Airport Elevation : 204 ft
- IATA code : AGF


LFBA - Agen

CURRENT METAR :
  • 232200Z AUTO VRB03KT CAVOK 09/07 Q1021

EXPIRED METARs :
  • 232130Z AUTO 18003KT 140V210 9999 ///TCU 10/08 Q1020
  • 232100Z AUTO 21005KT 160V240 9999 FEW017 OVC058 11/09 Q1020 BECMG BKN010
  • 232030Z AUTO 21005KT 160V230 9999 FEW018/// BKN024/// OVC029/// ///TCU 12/09 Q1020 BECMG BKN010
  • 232000Z AUTO 12004KT 9999 BKN019/// OVC026/// ///CB 11/09 Q1020 BECMG BKN010
  • 231930Z AUTO 12003KT 9999 OVC022/// ///TCU 11/09 Q1019 BECMG BKN010

TAF TAF LFBA
Valid from the 23 at 18:00 until the 24 at 03:00 UTC


231700Z 2318/2403 11012KT 9999 BKN020
BECMG 2318/2320 VRB03KT BKN010



MET'MAP, your aeronautical weather chart ! - Copyright ORBIFLY December 2007 - Disclaimer

ORBIFLY MET'MAP TEAM :

Programming & Development : Alexandra Zaïnal
Concept & original design : Baudouin d'Aumeries
Assistance for programming : Marc-Olivier Méhu
Technical & hardware support : Manuel Goepfert

Contact : metmap@orbifly.com




SOURCES & CREDITS :

   NOAA